createdAt,value
2018-01-25T00:00:55.777Z,0.53
2018-01-25T00:03:23.789Z,0.60
2018-01-25T00:05:51.761Z,0.50
2018-01-25T00:08:19.754Z,0.40
2018-01-25T00:10:47.729Z,0.50
2018-01-25T00:13:15.721Z,0.40
2018-01-25T00:15:43.689Z,0.77
2018-01-25T00:18:11.693Z,0.60
2018-01-25T00:20:39.648Z,0.70
2018-01-25T00:23:07.645Z,1.30
2018-01-25T00:25:35.628Z,0.50
2018-01-25T00:28:03.613Z,0.43
2018-01-25T00:30:31.593Z,0.90
2018-01-25T00:32:59.601Z,0.70
2018-01-25T00:35:27.577Z,0.47
2018-01-25T00:37:55.569Z,0.77
2018-01-25T00:40:23.530Z,0.50
2018-01-25T00:42:51.526Z,0.63
2018-01-25T00:45:19.498Z,0.40
2018-01-25T00:47:47.489Z,0.53
2018-01-25T00:50:15.464Z,0.63
2018-01-25T00:52:43.458Z,0.50
2018-01-25T00:55:11.445Z,0.70
2018-01-25T00:57:39.762Z,0.63
2018-01-25T01:00:07.756Z,0.77
2018-01-25T01:02:35.787Z,0.40
2018-01-25T01:05:03.761Z,0.70
2018-01-25T01:07:31.749Z,0.50
2018-01-25T01:09:59.725Z,0.50
2018-01-25T01:12:27.718Z,0.57
2018-01-25T01:14:55.694Z,0.50
2018-01-25T01:17:23.695Z,0.40
2018-01-25T01:19:51.668Z,0.90
2018-01-25T01:22:19.661Z,0.50
2018-01-25T01:24:47.638Z,0.70
2018-01-25T01:27:15.658Z,0.43
2018-01-25T01:29:44.620Z,0.60
2018-01-25T01:32:12.646Z,0.73
2018-01-25T01:34:40.619Z,0.67
2018-01-25T01:37:08.609Z,0.60
2018-01-25T01:39:42.522Z,0.50
2018-01-25T01:42:10.941Z,0.77
2018-01-25T01:44:38.908Z,0.60
2018-01-25T01:47:06.925Z,0.40
2018-01-25T01:49:34.889Z,0.50
2018-01-25T01:52:02.905Z,0.50
2018-01-25T01:54:30.865Z,0.50
2018-01-25T01:56:58.852Z,0.77
2018-01-25T01:59:26.817Z,0.60
2018-01-25T02:01:54.825Z,0.57
2018-01-25T02:04:22.784Z,0.43
2018-01-25T02:06:52.780Z,0.43
2018-01-25T02:09:20.757Z,0.67
2018-01-25T02:11:48.741Z,0.53
2018-01-25T02:14:16.709Z,0.70
2018-01-25T02:16:44.709Z,0.60
2018-01-25T02:19:12.677Z,0.83
2018-01-25T02:21:41.085Z,0.50
2018-01-25T02:24:09.073Z,0.60
2018-01-25T02:26:37.097Z,0.50
2018-01-25T02:29:05.093Z,0.50
2018-01-25T02:31:33.093Z,0.93
2018-01-25T02:34:01.109Z,0.50
2018-01-25T02:36:29.098Z,0.60
2018-01-25T02:38:57.101Z,0.50
2018-01-25T02:41:25.029Z,0.60
2018-01-25T02:43:52.964Z,0.50
2018-01-25T02:46:20.881Z,0.40
2018-01-25T02:48:48.841Z,0.70
2018-01-25T02:51:16.757Z,0.30
2018-01-25T02:53:44.792Z,0.70
2018-01-25T02:56:12.701Z,0.40
2018-01-25T02:58:40.635Z,0.50
2018-01-25T03:01:08.573Z,0.50
2018-01-25T03:03:36.529Z,0.40
2018-01-25T03:06:04.453Z,0.50
2018-01-25T03:08:32.385Z,0.63
2018-01-25T03:11:00.321Z,0.60
2018-01-25T03:13:28.248Z,0.47
2018-01-25T03:15:56.208Z,0.47
2018-01-25T03:18:24.140Z,0.70
2018-01-25T03:20:52.311Z,0.60
2018-01-25T03:23:20.246Z,1.10
2018-01-25T03:25:48.187Z,0.60
2018-01-25T03:28:16.125Z,0.87
2018-01-25T03:30:44.059Z,0.60
2018-01-25T03:33:12.006Z,0.70
2018-01-25T03:35:39.913Z,0.50
2018-01-25T03:38:07.850Z,0.50
2018-01-25T03:40:35.785Z,0.77
2018-01-25T03:43:03.718Z,0.57
2018-01-25T03:45:32.505Z,0.50
2018-01-25T03:48:00.457Z,0.40
2018-01-25T03:50:28.366Z,0.70
2018-01-25T03:52:56.434Z,0.40
2018-01-25T03:55:24.443Z,0.80
2018-01-25T03:57:52.444Z,0.40
2018-01-25T04:00:20.506Z,1.00
2018-01-25T04:02:48.632Z,0.63
2018-01-25T04:05:16.565Z,0.67
2018-01-25T04:07:44.653Z,0.60
2018-01-25T04:10:12.617Z,0.40
2018-01-25T04:12:40.549Z,0.90
2018-01-25T04:15:08.485Z,0.40
2018-01-25T04:17:36.418Z,0.83
2018-01-25T04:20:04.342Z,0.40
2018-01-25T04:22:32.280Z,0.40
2018-01-25T04:25:00.198Z,0.70
2018-01-25T04:27:28.158Z,0.33
2018-01-25T04:29:56.065Z,0.70
2018-01-25T04:32:24.017Z,0.50
2018-01-25T04:34:51.925Z,0.83
2018-01-25T04:37:19.833Z,0.67
2018-01-25T04:39:48.765Z,0.47
2018-01-25T04:42:16.686Z,0.67
2018-01-25T04:44:45.621Z,0.43
2018-01-25T04:47:13.565Z,0.53
2018-01-25T04:49:41.500Z,0.40
2018-01-25T04:52:09.408Z,0.60
2018-01-25T04:54:37.341Z,0.40
2018-01-25T04:57:05.285Z,0.40
2018-01-25T04:59:33.223Z,0.60
2018-01-25T05:02:01.136Z,4.53
2018-01-25T05:04:29.073Z,0.87
2018-01-25T05:06:56.990Z,0.50
2018-01-25T05:09:24.921Z,0.50
2018-01-25T05:11:52.825Z,1.13
2018-01-25T05:14:20.754Z,0.70
2018-01-25T05:16:49.664Z,1.03
2018-01-25T05:19:17.618Z,0.67
2018-01-25T05:21:45.557Z,0.50
2018-01-25T05:24:14.501Z,2.20
2018-01-25T05:26:42.542Z,0.40
2018-01-25T05:29:10.485Z,0.43
2018-01-25T05:31:38.468Z,0.73
2018-01-25T05:34:06.417Z,0.40
2018-01-25T05:36:34.361Z,3.70
2018-01-25T05:39:02.486Z,0.50
2018-01-25T05:41:30.405Z,0.40
2018-01-25T05:43:58.349Z,0.93
2018-01-25T05:46:26.260Z,0.53
2018-01-25T05:48:54.197Z,0.67
2018-01-25T05:51:22.109Z,0.40
2018-01-25T05:53:50.041Z,0.50
2018-01-25T05:56:17.990Z,0.60
2018-01-25T05:58:45.946Z,0.37
2018-01-25T06:01:14.134Z,0.60
2018-01-25T06:03:42.093Z,0.90
2018-01-25T06:06:10.017Z,0.60
2018-01-25T06:08:37.948Z,0.40
2018-01-25T06:11:05.865Z,0.57
2018-01-25T06:13:33.809Z,0.50
2018-01-25T06:16:01.724Z,0.50
2018-01-25T06:18:29.679Z,0.50
2018-01-25T06:20:57.597Z,0.50
2018-01-25T06:23:25.530Z,0.50
2018-01-25T06:25:53.493Z,0.50
2018-01-25T06:28:21.462Z,0.40
2018-01-25T06:30:49.532Z,0.40
2018-01-25T06:33:17.503Z,0.40
2018-01-25T06:35:45.594Z,0.33
2018-01-25T06:38:13.533Z,0.53
2018-01-25T06:40:41.473Z,0.43
2018-01-25T06:43:09.441Z,0.97
2018-01-25T06:45:37.389Z,0.47
2018-01-25T06:48:05.337Z,0.40
2018-01-25T06:50:33.284Z,0.50
2018-01-25T06:53:01.213Z,0.50
2018-01-25T06:55:29.157Z,0.50
2018-01-25T06:57:57.077Z,0.50
2018-01-25T07:00:25.193Z,0.90
2018-01-25T07:02:53.120Z,0.50
2018-01-25T07:05:21.115Z,0.60
2018-01-25T07:07:49.285Z,0.50
2018-01-25T07:10:17.245Z,0.40
2018-01-25T07:12:45.193Z,0.50
2018-01-25T07:15:13.149Z,0.83
2018-01-25T07:17:41.074Z,0.70
2018-01-25T07:20:09.056Z,0.50
2018-01-25T07:22:36.985Z,0.67
2018-01-25T07:25:04.938Z,0.60
2018-01-25T07:27:32.893Z,0.70
2018-01-25T07:30:00.845Z,0.60
2018-01-25T07:32:28.795Z,0.60
2018-01-25T07:34:56.749Z,0.57
2018-01-25T07:37:24.677Z,0.60
2018-01-25T07:39:52.620Z,0.50
2018-01-25T07:42:20.546Z,0.60
2018-01-25T07:44:48.497Z,0.73
2018-01-25T07:47:16.421Z,0.50
2018-01-25T07:49:44.369Z,0.60
2018-01-25T07:52:12.300Z,0.63
2018-01-25T07:54:40.252Z,0.63
2018-01-25T07:57:08.217Z,0.40
2018-01-25T07:59:36.160Z,0.50
2018-01-25T08:02:04.122Z,0.97
2018-01-25T08:04:32.108Z,0.40
2018-01-25T08:07:00.035Z,0.73
2018-01-25T08:09:27.989Z,0.97
2018-01-25T08:11:55.921Z,0.67
2018-01-25T08:14:23.921Z,0.50
2018-01-25T08:16:51.885Z,0.93
2018-01-25T08:19:19.841Z,0.47
2018-01-25T08:21:47.773Z,0.63
2018-01-25T08:24:15.738Z,0.40
2018-01-25T08:26:43.681Z,0.63
2018-01-25T08:29:11.633Z,0.70
2018-01-25T08:31:39.597Z,0.60
2018-01-25T08:34:07.542Z,0.60
2018-01-25T08:36:35.461Z,1.10
2018-01-25T08:39:03.437Z,0.40
2018-01-25T08:41:33.226Z,0.50
2018-01-25T08:43:59.329Z,0.73
2018-01-25T08:46:27.260Z,0.50
2018-01-25T08:48:55.205Z,0.60
2018-01-25T08:51:23.132Z,0.60
2018-01-25T08:53:51.098Z,0.50
2018-01-25T08:56:19.021Z,0.50
2018-01-25T08:58:46.988Z,0.70
2018-01-25T09:01:14.916Z,0.50
2018-01-25T09:03:42.859Z,0.50
2018-01-25T09:06:10.789Z,0.60
2018-01-25T09:08:38.741Z,0.70
2018-01-25T09:11:06.677Z,1.27
2018-01-25T09:13:34.670Z,0.50
2018-01-25T09:16:03.613Z,0.73
2018-01-25T09:18:31.557Z,0.50
2018-01-25T09:20:59.489Z,0.70
2018-01-25T09:23:27.497Z,0.63
2018-01-25T09:25:55.445Z,0.50
2018-01-25T09:28:23.410Z,0.60
2018-01-25T09:30:51.910Z,1.00
2018-01-25T09:33:19.823Z,0.43
2018-01-25T09:35:47.767Z,0.60
2018-01-25T09:38:15.693Z,0.60
2018-01-25T09:40:43.636Z,0.40
2018-01-25T09:43:11.595Z,0.50
2018-01-25T09:45:39.541Z,0.50
2018-01-25T09:48:07.497Z,0.70
2018-01-25T09:50:35.441Z,0.70
2018-01-25T09:53:03.369Z,0.50
2018-01-25T09:55:31.313Z,0.63
2018-01-25T09:57:59.248Z,0.50
2018-01-25T10:00:27.197Z,0.47
2018-01-25T10:02:55.129Z,0.50
2018-01-25T10:05:23.080Z,0.67
2018-01-25T10:07:51.845Z,0.50
2018-01-25T10:10:19.808Z,0.50
2018-01-25T10:12:47.741Z,0.60
2018-01-25T10:15:15.680Z,0.40
2018-01-25T10:17:43.613Z,0.70
2018-01-25T10:20:11.932Z,0.60
2018-01-25T10:22:39.957Z,0.60
2018-01-25T10:25:08.007Z,0.50
2018-01-25T10:27:36.108Z,0.70
2018-01-25T10:30:04.120Z,0.80
2018-01-25T10:32:32.163Z,0.63
2018-01-25T10:35:00.212Z,0.60
2018-01-25T10:37:28.260Z,0.40
2018-01-25T10:39:56.316Z,0.70
2018-01-25T10:45:10.168Z,0.50
2018-01-25T10:47:38.177Z,0.70
2018-01-25T10:50:06.204Z,0.70
2018-01-25T10:52:34.236Z,0.83
2018-01-25T10:55:02.276Z,0.47
2018-01-25T10:57:30.293Z,0.73
2018-01-25T10:59:58.320Z,0.63
2018-01-25T11:02:26.320Z,0.83
2018-01-25T11:04:54.386Z,0.50
2018-01-25T11:07:22.399Z,0.77
2018-01-25T11:09:50.452Z,0.77
2018-01-25T11:15:04.334Z,0.67
2018-01-25T11:17:32.263Z,0.73
2018-01-25T11:20:00.202Z,0.60
2018-01-25T11:22:28.133Z,0.50
2018-01-25T11:24:56.065Z,0.60
2018-01-25T11:27:24.122Z,0.57
2018-01-25T11:29:52.129Z,0.50
2018-01-25T11:32:20.045Z,0.50
2018-01-25T11:34:47.977Z,0.60
2018-01-25T11:37:15.900Z,0.40
2018-01-25T11:39:43.850Z,0.60
2018-01-25T11:42:11.765Z,0.50
2018-01-25T11:44:39.706Z,0.90
2018-01-25T11:47:08.648Z,0.43
2018-01-25T11:49:36.646Z,0.40
2018-01-25T11:52:04.562Z,0.50
2018-01-25T11:54:32.507Z,0.90
2018-01-25T11:57:00.438Z,0.80
2018-01-25T11:59:28.386Z,0.60
2018-01-25T12:01:56.313Z,0.60
2018-01-25T12:04:24.273Z,0.40
2018-01-25T12:06:52.525Z,0.30
2018-01-25T12:09:20.577Z,0.40
2018-01-25T12:11:48.493Z,0.40
2018-01-25T12:14:16.425Z,0.60
2018-01-25T12:16:44.345Z,1.07
2018-01-25T12:19:12.285Z,0.60
2018-01-25T12:21:40.197Z,0.50
2018-01-25T12:24:08.137Z,0.83
2018-01-25T12:26:36.073Z,0.50
2018-01-25T12:29:04.039Z,0.43
2018-01-25T12:31:32.945Z,0.50
2018-01-25T12:34:00.881Z,0.50
2018-01-25T12:36:28.793Z,0.70
2018-01-25T12:38:56.730Z,0.30
2018-01-25T12:41:24.641Z,0.50
2018-01-25T12:43:52.582Z,0.40
2018-01-25T12:46:20.513Z,0.50
2018-01-25T12:48:49.434Z,0.40
2018-01-25T12:51:17.362Z,0.60
2018-01-25T12:53:45.301Z,0.57
2018-01-25T12:56:14.402Z,0.67
2018-01-25T12:58:42.345Z,0.50
2018-01-25T13:01:10.253Z,0.40
2018-01-25T13:03:38.194Z,0.40
2018-01-25T13:06:06.117Z,0.50
2018-01-25T13:08:34.049Z,0.37
2018-01-25T13:11:01.966Z,0.50
2018-01-25T13:13:29.910Z,0.60
2018-01-25T13:15:57.838Z,0.53
2018-01-25T13:18:25.785Z,0.40
2018-01-25T13:20:53.721Z,0.53
2018-01-25T13:23:21.653Z,0.40
2018-01-25T13:25:49.617Z,0.40
2018-01-25T13:28:17.549Z,0.80
2018-01-25T13:30:45.497Z,0.40
2018-01-25T13:33:19.534Z,0.60
2018-01-25T13:35:47.469Z,0.50
2018-01-25T13:38:15.385Z,0.43
2018-01-25T13:40:43.369Z,0.60
2018-01-25T13:43:11.286Z,0.60
2018-01-25T13:45:39.254Z,0.67
2018-01-25T13:48:07.226Z,0.67
2018-01-25T13:50:35.145Z,0.67
2018-01-25T13:53:03.065Z,0.77
2018-01-25T13:55:31.005Z,0.60
2018-01-25T13:57:58.926Z,0.67
2018-01-25T14:00:27.861Z,0.60
2018-01-25T14:02:55.789Z,0.40
2018-01-25T14:05:23.751Z,0.43
2018-01-25T14:07:51.661Z,0.60
2018-01-25T14:10:19.649Z,0.70
2018-01-25T14:12:47.564Z,1.17
2018-01-25T14:15:15.501Z,0.57
2018-01-25T14:17:43.409Z,0.50
2018-01-25T14:20:11.359Z,0.53
2018-01-25T14:22:39.301Z,0.70
2018-01-25T14:25:07.233Z,0.50
2018-01-25T14:27:35.216Z,0.50
2018-01-25T14:30:03.171Z,0.50
2018-01-25T14:32:31.085Z,0.70
2018-01-25T14:34:59.042Z,0.80
2018-01-25T14:37:26.953Z,0.63
2018-01-25T14:39:54.893Z,0.60
2018-01-25T14:42:22.818Z,0.60
2018-01-25T14:44:50.911Z,0.60
2018-01-25T14:47:18.821Z,0.60
2018-01-25T14:49:46.752Z,0.50
2018-01-25T14:52:14.665Z,0.40
2018-01-25T14:54:42.618Z,0.50
2018-01-25T14:57:10.574Z,0.50
2018-01-25T14:59:45.453Z,0.57
2018-01-25T15:02:13.377Z,0.50
2018-01-25T15:04:41.385Z,0.87
2018-01-25T15:07:09.294Z,0.53
2018-01-25T15:09:37.233Z,0.63
2018-01-25T15:12:05.149Z,0.60
2018-01-25T15:14:33.081Z,0.60
2018-01-25T15:17:01.005Z,0.50
2018-01-25T15:19:28.960Z,0.57
2018-01-25T15:21:56.869Z,0.90
2018-01-25T15:24:24.809Z,0.70
2018-01-25T15:26:52.770Z,0.63
2018-01-25T15:29:20.717Z,0.60
2018-01-25T15:31:48.629Z,1.77
2018-01-25T15:34:16.598Z,2.20
2018-01-25T15:36:44.581Z,3.70
2018-01-25T15:39:12.522Z,2.00
2018-01-25T15:41:40.449Z,0.60
2018-01-25T15:44:08.424Z,0.80
2018-01-25T15:46:37.337Z,1.07
2018-01-25T15:49:05.322Z,2.43
2018-01-25T15:51:33.274Z,1.87
2018-01-25T15:54:01.217Z,3.23
2018-01-25T15:56:29.149Z,2.83
2018-01-25T15:58:57.385Z,2.33
2018-01-25T16:01:25.301Z,3.20
2018-01-25T16:03:53.241Z,2.60
2018-01-25T16:06:25.238Z,4.40
2018-01-25T16:08:53.214Z,6.28
2018-01-25T16:11:25.554Z,2.67
2018-01-25T16:13:53.490Z,5.47
2018-01-25T16:16:21.405Z,3.93
2018-01-25T16:18:49.353Z,4.63
2018-01-25T16:21:17.286Z,3.67
2018-01-25T16:23:45.226Z,5.07
2018-01-25T16:26:13.217Z,4.43
2018-01-25T16:28:41.157Z,8.87
2018-01-25T16:31:09.077Z,6.50
2018-01-25T16:33:37.018Z,9.07
2018-01-25T16:36:04.974Z,4.20
2018-01-25T16:38:32.986Z,5.23
2018-01-25T16:41:00.926Z,7.00
2018-01-25T16:43:28.893Z,7.63
2018-01-25T16:45:56.819Z,10.43
2018-01-25T16:48:24.774Z,5.80
2018-01-25T16:50:52.686Z,6.50
2018-01-25T16:53:20.622Z,9.37
2018-01-25T16:55:48.564Z,10.60
2018-01-25T16:58:16.486Z,4.23
2018-01-25T17:00:44.441Z,7.67
2018-01-25T17:03:12.357Z,6.50
2018-01-25T17:05:40.318Z,4.13
2018-01-25T17:08:08.253Z,3.73
2018-01-25T17:10:36.185Z,7.10
2018-01-25T17:13:04.142Z,3.83
2018-01-25T17:15:32.078Z,3.33
2018-01-25T17:17:59.989Z,6.53
2018-01-25T17:20:27.932Z,3.43
2018-01-25T17:22:55.861Z,2.40
2018-01-25T17:25:23.947Z,3.43
2018-01-25T17:27:51.881Z,5.17
2018-01-25T17:30:19.823Z,11.73
2018-01-25T17:32:47.753Z,7.80
2018-01-25T17:35:15.697Z,9.17
2018-01-25T17:37:43.739Z,6.57
2018-01-25T17:40:11.601Z,11.18
2018-01-25T17:42:39.521Z,14.23
2018-01-25T17:45:07.441Z,6.27
2018-01-25T17:47:35.378Z,12.00
2018-01-25T17:50:03.329Z,13.27
2018-01-25T17:52:31.270Z,7.53
2018-01-25T17:54:59.190Z,14.43
2018-01-25T17:57:27.129Z,8.40
2018-01-25T17:59:55.078Z,9.50
2018-01-25T18:02:23.030Z,8.40
2018-01-25T18:04:50.962Z,15.47
2018-01-25T18:07:18.898Z,14.47
2018-01-25T18:09:47.832Z,10.50
2018-01-25T18:12:15.790Z,8.40
2018-01-25T18:14:43.729Z,8.67
2018-01-25T18:17:11.693Z,4.33
2018-01-25T18:19:39.621Z,11.47
2018-01-25T18:22:07.561Z,11.20
2018-01-25T18:24:35.480Z,5.20
2018-01-25T18:27:03.449Z,9.80
2018-01-25T18:29:31.366Z,5.53
2018-01-25T18:31:59.326Z,8.37
2018-01-25T18:34:27.377Z,8.47
2018-01-25T18:36:55.326Z,8.93
2018-01-25T18:39:23.245Z,5.33
2018-01-25T18:41:51.185Z,4.83
2018-01-25T18:44:19.125Z,10.50
2018-01-25T18:46:47.097Z,7.57
2018-01-25T18:49:15.014Z,5.13
2018-01-25T18:51:42.961Z,3.80
2018-01-25T18:54:10.885Z,4.80
2018-01-25T18:56:38.817Z,7.73
2018-01-25T18:59:06.742Z,4.60
2018-01-25T19:01:34.682Z,4.13
2018-01-25T19:04:02.631Z,4.97
2018-01-25T19:06:30.569Z,3.67
2018-01-25T19:08:58.489Z,5.17
2018-01-25T19:11:26.433Z,6.03
2018-01-25T19:13:54.373Z,3.10
2018-01-25T19:16:22.349Z,4.20
2018-01-25T19:18:50.278Z,4.33
2018-01-25T19:21:18.238Z,4.27
2018-01-25T19:23:46.176Z,4.77
2018-01-25T19:26:14.133Z,15.07
2018-01-25T19:28:42.061Z,11.23
2018-01-25T19:31:10.004Z,5.87
2018-01-25T19:33:37.958Z,6.23
2018-01-25T19:36:05.877Z,7.07
2018-01-25T19:38:33.814Z,4.93
2018-01-25T19:41:01.730Z,4.17
2018-01-25T19:43:29.685Z,5.87
2018-01-25T19:45:57.609Z,5.50
2018-01-25T19:48:25.781Z,3.87
2018-01-25T19:50:53.837Z,4.10
2018-01-25T19:53:21.782Z,4.40
2018-01-25T19:55:49.706Z,3.53
2018-01-25T19:58:17.653Z,3.97
2018-01-25T20:00:45.577Z,9.50
2018-01-25T20:03:13.509Z,2.40
2018-01-25T20:05:41.449Z,4.30
2018-01-25T20:08:09.397Z,3.80
2018-01-25T20:10:37.345Z,2.73
2018-01-25T20:13:05.276Z,4.80
2018-01-25T20:15:33.199Z,2.53
2018-01-25T20:18:01.141Z,2.93
2018-01-25T20:20:29.058Z,4.70
2018-01-25T20:22:56.974Z,3.43
2018-01-25T20:25:24.937Z,3.00
2018-01-25T20:27:52.885Z,2.43
2018-01-25T20:30:20.829Z,3.60
2018-01-25T20:32:48.793Z,3.53
2018-01-25T20:35:16.713Z,2.87
2018-01-25T20:37:44.646Z,4.70
2018-01-25T20:40:12.567Z,2.83
2018-01-25T20:42:40.497Z,5.73
2018-01-25T20:45:08.481Z,4.47
2018-01-25T20:47:36.397Z,2.43
2018-01-25T20:50:04.361Z,4.40
2018-01-25T20:52:32.306Z,3.03
2018-01-25T20:55:00.274Z,2.63
2018-01-25T20:57:28.209Z,2.90
2018-01-25T20:59:56.174Z,3.40
2018-01-25T21:02:24.181Z,4.50
2018-01-25T21:04:52.160Z,2.03
2018-01-25T21:07:20.130Z,4.77
2018-01-25T21:09:48.123Z,2.00
2018-01-25T21:12:16.138Z,3.90
2018-01-25T21:14:44.089Z,2.00
2018-01-25T21:17:13.030Z,2.00
2018-01-25T21:19:40.976Z,1.60
2018-01-25T21:22:08.918Z,1.77
2018-01-25T21:24:36.863Z,2.50
2018-01-25T21:27:04.777Z,2.90
2018-01-25T21:29:32.709Z,3.07
2018-01-25T21:32:01.626Z,3.13
2018-01-25T21:34:29.545Z,2.47
2018-01-25T21:36:57.498Z,2.43
2018-01-25T21:39:25.414Z,2.50
2018-01-25T21:41:54.377Z,2.27
2018-01-25T21:44:22.322Z,4.40
2018-01-25T21:46:50.245Z,1.97
2018-01-25T21:49:18.176Z,3.37
2018-01-25T21:51:46.109Z,2.13
2018-01-25T21:54:14.026Z,2.17
2018-01-25T21:56:41.973Z,2.80
2018-01-25T21:59:09.917Z,3.73
2018-01-25T22:01:37.833Z,3.47
2018-01-25T22:04:05.741Z,2.73
2018-01-25T22:06:33.701Z,2.10
2018-01-25T22:09:01.617Z,2.50
2018-01-25T22:11:29.529Z,2.37
2018-01-25T22:13:57.462Z,1.83
2018-01-25T22:16:25.380Z,2.80
2018-01-25T22:18:53.297Z,3.10
2018-01-25T22:21:21.241Z,1.80
2018-01-25T22:23:49.165Z,2.10
2018-01-25T22:26:17.105Z,2.00
2018-01-25T22:28:45.050Z,2.50
2018-01-25T22:31:12.977Z,1.53
2018-01-25T22:33:40.889Z,2.83
2018-01-25T22:36:09.826Z,2.73
2018-01-25T22:38:37.749Z,3.00
2018-01-25T22:41:05.674Z,1.40
2018-01-25T22:43:33.621Z,2.03
2018-01-25T22:46:01.545Z,1.20
2018-01-25T22:48:29.478Z,2.03
2018-01-25T22:50:57.628Z,1.50
2018-01-25T22:53:25.546Z,1.80
2018-01-25T22:55:53.458Z,3.00
2018-01-25T22:58:21.413Z,1.50
2018-01-25T23:00:49.341Z,2.60
2018-01-25T23:03:17.252Z,1.90
2018-01-25T23:05:45.247Z,2.43
2018-01-25T23:08:13.170Z,2.10
2018-01-25T23:10:41.089Z,1.50
2018-01-25T23:13:09.037Z,1.67
2018-01-25T23:15:36.952Z,1.90
2018-01-25T23:18:04.870Z,1.63
2018-01-25T23:20:32.849Z,1.90
2018-01-25T23:23:00.750Z,1.97
2018-01-25T23:25:28.669Z,2.77
2018-01-25T23:27:56.609Z,2.57
2018-01-25T23:30:24.550Z,1.67
2018-01-25T23:32:52.460Z,3.00
2018-01-25T23:35:21.478Z,1.40
2018-01-25T23:37:49.393Z,1.20
2018-01-25T23:40:17.313Z,1.63
2018-01-25T23:42:45.341Z,1.87
2018-01-25T23:45:13.257Z,1.53
2018-01-25T23:47:42.169Z,1.93
2018-01-25T23:50:10.101Z,1.40
2018-01-25T23:52:38.034Z,1.30
2018-01-25T23:55:05.969Z,1.50
2018-01-25T23:57:33.884Z,2.20
